Time;durP1;ratioP1;P1;durP2;ratioP2;P2;SDS_P1;SDS_P2;PMS_P1;PMS_P2;Temp;Humidity;BMP_temperature;BMP_pressure;BME280_temperature;BME280_humidity;BME280_pressure;Samples;Min_cycle;Max_cycle;Signal;HPM_P1;HPM_P2
2023/05/06 00:01:35;;;;;;;5.93;2.30;;;;;;;24.15;40.34;99800.38;4499601;31;33992;-62
2023/05/06 00:04:03;;;;;;;5.05;2.28;;;;;;;24.15;40.32;99803.09;4499144;31;33430;-62
2023/05/06 00:06:32;;;;;;;3.67;2.20;;;;;;;24.14;40.30;99805.00;4499597;31;34459;-62
2023/05/06 00:09:01;;;;;;;4.18;1.90;;;;;;;24.15;40.32;99803.09;4499560;31;34885;-62
2023/05/06 00:11:28;;;;;;;4.37;2.67;;;;;;;24.14;40.42;99793.25;4499414;31;33631;-62
2023/05/06 00:13:56;;;;;;;7.22;2.15;;;;;;;24.14;40.42;99802.25;4499507;31;33376;-62
2023/05/06 00:16:23;;;;;;;4.65;2.00;;;;;;;24.13;40.58;99797.88;4499408;31;34562;-62
2023/05/06 00:18:51;;;;;;;5.00;2.12;;;;;;;24.14;40.62;99795.97;4499437;31;34869;-62
2023/05/06 00:21:19;;;;;;;3.95;2.20;;;;;;;24.14;40.68;99798.72;4499429;31;34556;-62
2023/05/06 00:23:46;;;;;;;3.92;2.28;;;;;;;24.14;40.64;99801.44;4499392;31;34173;-62
2023/05/06 00:26:14;;;;;;;4.53;2.03;;;;;;;24.14;40.61;99806.88;4499028;31;34083;-62
2023/05/06 00:28:42;;;;;;;6.30;2.00;;;;;;;24.14;40.67;99804.16;4498021;31;34461;-62
2023/05/06 00:31:09;;;;;;;3.08;1.90;;;;;;;24.13;40.51;99797.88;4499096;31;33894;-62
2023/05/06 00:33:37;;;;;;;3.50;1.98;;;;;;;24.13;40.44;99803.34;4499123;31;33574;-62
2023/05/06 00:36:05;;;;;;;6.05;2.65;;;;;;;24.14;40.37;99807.72;4499100;31;34753;-62
2023/05/06 00:38:33;;;;;;;3.90;2.10;;;;;;;24.13;40.36;99799.78;4499364;31;33761;-62
2023/05/06 00:41:02;;;;;;;6.20;2.62;;;;;;;24.12;40.39;99800.84;4498998;31;33697;-62
2023/05/06 00:43:29;;;;;;;3.58;2.15;;;;;;;24.13;40.43;99799.78;4499282;31;33257;-62
2023/05/06 00:45:57;;;;;;;3.65;1.98;;;;;;;24.13;40.45;99800.59;4498941;31;34857;-62
2023/05/06 00:48:24;;;;;;;4.53;2.10;;;;;;;24.12;40.43;99798.13;4497957;31;33707;-62
2023/05/06 00:50:52;;;;;;;4.07;2.20;;;;;;;24.13;40.41;99797.06;4486421;31;33555;-62
2023/05/06 00:53:22;;;;;;;5.80;2.12;;;;;;;24.12;40.48;99796.22;4499914;31;33106;-62
2023/05/06 00:55:50;;;;;;;4.90;1.92;;;;;;;24.12;40.50;99792.66;4499950;31;33943;-62
2023/05/06 00:58:18;;;;;;;5.35;2.20;;;;;;;24.11;40.52;99794.56;4501421;31;33972;-63
2023/05/06 01:00:46;;;;;;;3.15;2.05;;;;;;;24.12;40.43;99792.66;4501009;31;33970;-62
2023/05/06 01:03:13;;;;;;;3.22;1.83;;;;;;;24.11;40.41;99789.13;4499991;31;33478;-62
2023/05/06 01:05:50;;;;;;;4.60;2.10;;;;;;;24.11;40.48;99788.28;4500994;31;34619;-62
2023/05/06 01:08:41;;;;;;;3.53;1.92;;;;;;;24.11;40.51;99783.66;4499595;31;34129;-62
2023/05/06 01:12:00;;;;;;;5.40;2.17;;;;;;;24.14;40.50;99787.81;4499890;31;33654;-62
2023/05/06 01:14:35;;;;;;;4.45;1.92;;;;;;;24.14;40.45;99790.53;4474436;31;33424;-62
2023/05/06 01:17:04;;;;;;;3.55;2.00;;;;;;;24.11;40.51;99794.56;4500914;31;33866;-62
2023/05/06 01:19:36;;;;;;;5.18;2.37;;;;;;;24.10;40.57;99784.69;4500991;31;33702;-62
2023/05/06 01:22:04;;;;;;;4.20;1.98;;;;;;;24.10;40.56;99784.69;4500859;31;33554;-63
2023/05/06 01:24:36;;;;;;;4.60;1.98;;;;;;;24.10;40.55;99781.16;4500995;31;34118;-62
2023/05/06 01:27:04;;;;;;;5.03;2.40;;;;;;;24.09;40.57;99783.03;4500810;31;34199;-62
2023/05/06 01:29:32;;;;;;;3.25;1.95;;;;;;;24.09;40.56;99777.59;4499723;31;33884;-62
2023/05/06 01:32:07;;;;;;;4.07;2.15;;;;;;;24.10;40.60;99775.69;4485021;31;34550;-62
2023/05/06 01:34:42;;;;;;;3.00;1.70;;;;;;;24.09;40.63;99777.59;4483754;32;33080;-62
2023/05/06 01:37:40;;;;;;;7.25;2.20;;;;;;;24.10;40.58;99775.69;4471113;32;34681;-63
2023/05/06 01:40:08;;;;;;;3.72;1.70;;;;;;;24.09;40.65;99771.31;4481295;31;34216;-63
2023/05/06 01:42:35;;;;;;;4.55;2.10;;;;;;;24.09;40.62;99766.69;4483843;32;33705;-62
2023/05/06 01:45:03;;;;;;;3.97;2.00;;;;;;;24.08;40.65;99772.37;4470528;32;34411;-62
2023/05/06 01:47:31;;;;;;;3.90;2.10;;;;;;;24.07;40.66;99774.28;4484991;32;33568;-63
2023/05/06 01:49:59;;;;;;;4.18;1.90;;;;;;;24.08;40.68;99767.75;4484984;32;34767;-62
2023/05/06 01:52:27;;;;;;;4.47;1.98;;;;;;;24.08;40.64;99769.66;4470618;32;34635;-63
2023/05/06 01:54:55;;;;;;;2.67;1.70;;;;;;;24.07;40.66;99766.09;4485057;32;33502;-62
2023/05/06 01:57:23;;;;;;;3.78;1.80;;;;;;;24.07;40.69;99770.72;4484996;32;34421;-62
2023/05/06 01:59:51;;;;;;;3.25;1.87;;;;;;;24.07;40.71;99766.09;4484803;32;33659;-62
2023/05/06 02:02:18;;;;;;;3.75;1.90;;;;;;;24.06;40.70;99764.44;4484644;32;33860;-63
2023/05/06 02:04:46;;;;;;;4.68;2.00;;;;;;;24.07;40.71;99770.72;4484810;32;33868;-63
2023/05/06 02:07:14;;;;;;;4.60;2.20;;;;;;;24.06;40.72;99775.34;4484946;32;34224;-62
2023/05/06 02:09:43;;;;;;;3.33;2.12;;;;;;;24.06;40.68;99778.06;4484886;32;34018;-62
2023/05/06 02:12:11;;;;;;;4.55;2.08;;;;;;;24.07;40.68;99781.63;4484863;32;33995;-62
2023/05/06 02:14:38;;;;;;;4.90;1.80;;;;;;;24.07;40.69;99773.44;4484777;32;32936;-62
2023/05/06 02:17:06;;;;;;;5.32;2.12;;;;;;;24.06;40.70;99771.78;4484798;32;34763;-62
2023/05/06 02:19:33;;;;;;;5.18;2.00;;;;;;;24.06;40.77;99771.78;4484945;32;34026;-62
2023/05/06 02:22:02;;;;;;;3.25;1.85;;;;;;;24.06;40.78;99767.19;4483614;32;34706;-62
2023/05/06 02:24:30;;;;;;;6.20;1.90;;;;;;;24.06;40.78;99774.50;4484864;32;33527;-63
2023/05/06 02:26:57;;;;;;;4.60;2.28;;;;;;;24.06;40.76;99774.50;4484683;32;34687;-62
2023/05/06 02:29:25;;;;;;;2.90;1.80;;;;;;;24.04;40.81;99777.47;4484596;32;34118;-63
2023/05/06 02:31:52;;;;;;;4.12;2.25;;;;;;;24.04;40.81;99777.47;4498450;31;33758;-63
2023/05/06 02:34:20;;;;;;;2.87;1.92;;;;;;;24.04;40.80;99784.81;4500550;31;33619;-62
2023/05/06 02:36:48;;;;;;;3.83;1.83;;;;;;;24.05;40.85;99781.84;4499314;31;33518;-63
2023/05/06 02:39:15;;;;;;;3.87;1.83;;;;;;;24.05;40.87;99775.56;4500466;31;34748;-63
2023/05/06 02:41:43;;;;;;;3.40;1.65;;;;;;;24.06;40.89;99779.94;4500404;31;34617;-63
2023/05/06 02:44:10;;;;;;;4.45;2.00;;;;;;;24.05;40.93;99778.28;4500236;31;33457;-63
2023/05/06 02:46:38;;;;;;;2.72;1.73;;;;;;;24.05;40.96;99778.28;4500376;31;33633;-62
2023/05/06 02:49:05;;;;;;;3.45;2.00;;;;;;;24.04;40.97;99777.47;4500413;31;34528;-63
2023/05/06 02:51:33;;;;;;;3.95;1.70;;;;;;;24.04;40.97;99780.19;4500339;31;33594;-63
2023/05/06 02:54:01;;;;;;;3.47;1.83;;;;;;;24.04;40.88;99782.91;4500275;31;34228;-62
2023/05/06 02:56:28;;;;;;;2.75;1.60;;;;;;;24.04;40.82;99779.34;4499150;31;33945;-63
2023/05/06 02:58:56;;;;;;;5.30;2.15;;;;;;;24.04;40.82;99782.09;4500272;31;33595;-62
2023/05/06 03:01:24;;;;;;;3.15;1.87;;;;;;;24.02;40.88;99774.16;4500257;31;34041;-63
2023/05/06 03:03:51;;;;;;;3.58;1.73;;;;;;;24.03;40.94;99775.81;4500194;31;33374;-62
2023/05/06 03:06:19;;;;;;;4.15;1.85;;;;;;;24.03;41.00;99775.81;4500157;31;34806;-63
2023/05/06 03:08:47;;;;;;;4.00;1.90;;;;;;;24.02;40.98;99776.88;4500302;31;34151;-63
2023/05/06 03:11:14;;;;;;;3.10;1.98;;;;;;;24.02;40.97;99776.88;4500230;31;33481;-62
2023/05/06 03:13:42;;;;;;;4.15;1.75;;;;;;;24.03;41.00;99777.69;4499397;31;33211;-63
2023/05/06 03:16:15;;;;;;;2.53;1.50;;;;;;;24.02;41.03;99778.78;4500108;31;34888;-62
2023/05/06 03:18:43;;;;;;;3.15;1.83;;;;;;;24.02;41.03;99776.88;4500037;31;34088;-62
2023/05/06 03:21:11;;;;;;;3.37;1.80;;;;;;;24.04;40.98;99779.34;4499173;31;33070;-62
2023/05/06 03:23:39;;;;;;;3.83;1.58;;;;;;;24.04;40.98;99779.34;4500369;31;34198;-62
2023/05/06 03:26:07;;;;;;;3.53;1.87;;;;;;;24.03;40.98;99775.81;4499834;31;34038;-62
2023/05/06 03:28:35;;;;;;;4.07;1.62;;;;;;;24.03;41.00;99767.63;4486215;31;34757;-62
2023/05/06 03:31:03;;;;;;;3.67;1.70;;;;;;;24.03;41.06;99775.81;4499893;31;33775;-62
2023/05/06 03:33:32;;;;;;;5.20;2.03;;;;;;;24.03;41.04;99773.06;4500279;31;32944;-62
2023/05/06 03:36:01;;;;;;;2.83;1.70;;;;;;;24.04;41.07;99763.84;4500318;31;33690;-62
2023/05/06 03:38:28;;;;;;;3.10;1.85;;;;;;;24.03;41.10;99770.34;4500204;31;34742;-62
2023/05/06 03:40:57;;;;;;;4.45;1.98;;;;;;;24.03;41.12;99766.78;4500038;31;34593;-62
2023/05/06 03:43:25;;;;;;;4.37;2.20;;;;;;;24.03;41.20;99767.63;4498869;31;34252;-63
2023/05/06 03:45:53;;;;;;;2.42;1.50;;;;;;;24.02;41.21;99768.69;4498865;31;34638;-63
2023/05/06 03:48:21;;;;;;;3.72;1.83;;;;;;;24.03;41.19;99769.53;4499755;31;34590;-63
2023/05/06 03:50:48;;;;;;;3.10;1.58;;;;;;;24.02;41.20;99765.16;4500109;31;33860;-63
2023/05/06 03:53:16;;;;;;;3.83;1.60;;;;;;;24.02;41.19;99774.16;4498573;31;34158;-62
2023/05/06 03:55:44;;;;;;;3.45;1.92;;;;;;;24.02;41.21;99774.16;4499459;31;33922;-63
2023/05/06 03:58:12;;;;;;;5.05;1.77;;;;;;;24.02;41.27;99779.59;4499815;31;35308;-62
2023/05/06 04:00:39;;;;;;;3.67;1.60;;;;;;;24.02;41.15;99787.78;4499874;31;34698;-63
2023/05/06 04:03:07;;;;;;;2.97;1.55;;;;;;;24.03;41.04;99783.97;4499667;31;33199;-62
2023/05/06 04:05:35;;;;;;;4.03;1.60;;;;;;;24.03;41.03;99789.44;4499842;31;33817;-63
2023/05/06 04:08:03;;;;;;;3.78;2.00;;;;;;;24.03;41.08;99794.87;4499704;31;33880;-63
2023/05/06 04:10:31;;;;;;;3.83;1.70;;;;;;;24.02;41.10;99795.94;4499858;31;33693;-63
2023/05/06 04:12:59;;;;;;;3.83;1.75;;;;;;;24.02;41.15;99789.66;4499697;31;34189;-62
2023/05/06 04:15:30;;;;;;;4.15;1.83;;;;;;;24.03;41.12;99786.72;4499572;31;33905;-63
2023/05/06 04:17:59;;;;;;;3.83;1.80;;;;;;;24.01;41.19;99788.81;4499535;31;33958;-63
2023/05/06 04:20:27;;;;;;;2.42;1.50;;;;;;;24.03;41.20;99789.44;4496918;31;33261;-62
2023/05/06 04:22:54;;;;;;;2.83;1.87;;;;;;;24.02;41.15;99787.78;4498872;31;33586;-63
2023/05/06 04:25:22;;;;;;;4.28;1.98;;;;;;;24.05;41.15;99794.66;4500436;31;34541;-63
2023/05/06 04:27:50;;;;;;;6.45;2.28;;;;;;;24.02;41.25;99795.94;4496500;31;33536;-62
2023/05/06 04:30:19;;;;;;;2.90;1.62;;;;;;;24.02;41.24;99797.84;4500742;31;33941;-62
2023/05/06 04:32:47;;;;;;;4.05;1.98;;;;;;;24.03;41.21;99792.16;4500997;31;32913;-62
2023/05/06 04:35:15;;;;;;;4.60;1.92;;;;;;;24.04;41.12;99798.44;4501035;31;34681;-62
2023/05/06 04:37:44;;;;;;;5.90;1.92;;;;;;;24.04;41.04;99804.72;4500969;31;34096;-62
2023/05/06 04:40:12;;;;;;;3.83;1.90;;;;;;;24.04;41.02;99795.72;4501252;31;34011;-62
2023/05/06 04:42:41;;;;;;;2.87;1.70;;;;;;;24.04;41.02;99802.00;4500882;31;34099;-60
2023/05/06 04:45:10;;;;;;;4.28;2.17;;;;;;;24.04;41.01;99793.81;4500612;31;33936;-62
2023/05/06 04:47:38;;;;;;;6.43;1.70;;;;;;;24.05;41.03;99802.81;4501155;31;33660;-61
2023/05/06 04:50:08;;;;;;;3.55;1.92;;;;;;;24.04;41.00;99801.16;4501055;31;33821;-61
2023/05/06 04:52:36;;;;;;;3.12;1.95;;;;;;;24.05;41.01;99809.09;4501059;31;33115;-61
2023/05/06 04:55:04;;;;;;;4.40;1.98;;;;;;;24.05;41.00;99809.09;4499613;31;33737;-61
2023/05/06 04:57:33;;;;;;;4.45;2.05;;;;;;;24.05;41.01;99814.56;4500040;31;34422;-60
2023/05/06 05:00:01;;;;;;;3.53;1.98;;;;;;;24.05;41.11;99820.00;4501232;31;33751;-61
2023/05/06 05:02:30;;;;;;;3.22;1.60;;;;;;;24.04;41.26;99821.06;4500958;31;34062;-61
2023/05/06 05:04:58;;;;;;;4.43;2.00;;;;;;;24.05;41.24;99816.44;4500638;31;33692;-61
2023/05/06 05:07:25;;;;;;;5.60;2.25;;;;;;;24.04;41.19;99815.63;4500574;31;33613;-61
2023/05/06 05:09:53;;;;;;;7.45;1.90;;;;;;;24.06;41.08;99820.81;4501026;31;33883;-61
2023/05/06 05:12:21;;;;;;;4.78;1.90;;;;;;;24.05;41.10;99820.00;4499082;31;32962;-61
2023/05/06 05:14:48;;;;;;;3.83;1.70;;;;;;;24.05;41.04;99822.72;4500722;31;34946;-61
2023/05/06 05:17:16;;;;;;;3.55;1.98;;;;;;;24.05;41.02;99817.28;4500557;31;33927;-61
2023/05/06 05:19:44;;;;;;;3.12;2.00;;;;;;;24.05;41.04;99811.81;4500583;31;33558;-61
2023/05/06 05:22:12;;;;;;;4.32;1.87;;;;;;;24.05;41.02;99814.56;4500767;31;34727;-61
2023/05/06 05:24:40;;;;;;;4.32;2.03;;;;;;;24.06;40.99;99815.38;4500156;31;33471;-61
2023/05/06 05:27:07;;;;;;;4.18;2.00;;;;;;;24.04;41.04;99812.91;4500358;31;32957;-60
2023/05/06 05:29:35;;;;;;;4.00;1.87;;;;;;;24.05;41.01;99817.28;4500686;31;33785;-61
2023/05/06 05:32:04;;;;;;;3.10;1.85;;;;;;;24.05;41.01;99820.00;4500827;31;33317;-61
2023/05/06 05:34:32;;;;;;;3.00;1.67;;;;;;;24.07;40.99;99812.44;4500261;31;33814;-60
2023/05/06 05:37:00;;;;;;;4.15;1.70;;;;;;;24.06;41.01;99815.38;4500280;31;35015;-61
2023/05/06 05:39:28;;;;;;;3.37;1.70;;;;;;;24.06;41.02;99816.25;4500428;31;33764;-60
2023/05/06 05:41:55;;;;;;;3.87;1.77;;;;;;;24.06;41.02;99813.50;4500725;31;33681;-61
2023/05/06 05:44:23;;;;;;;4.15;1.77;;;;;;;24.06;41.02;99812.66;4499079;31;34880;-61
2023/05/06 05:46:52;;;;;;;3.83;1.60;;;;;;;24.06;41.04;99816.25;4500231;31;34670;-61
2023/05/06 05:49:20;;;;;;;3.60;1.70;;;;;;;24.07;41.02;99815.16;4500586;31;34000;-61
2023/05/06 05:51:48;;;;;;;4.05;2.08;;;;;;;24.07;41.09;99811.63;4500421;31;33980;-61
2023/05/06 05:54:16;;;;;;;4.05;1.98;;;;;;;24.07;41.22;99815.16;4500771;31;33988;-61
2023/05/06 05:56:44;;;;;;;3.05;1.67;;;;;;;24.06;41.21;99813.50;4499682;31;33953;-61
2023/05/06 05:59:12;;;;;;;4.85;1.90;;;;;;;24.06;41.24;99810.78;4500703;31;33333;-61
2023/05/06 06:01:40;;;;;;;3.10;1.90;;;;;;;24.08;41.25;99811.37;4500534;31;34168;-61
2023/05/06 06:04:08;;;;;;;6.37;1.80;;;;;;;24.08;41.26;99808.66;4499802;31;33908;-61
2023/05/06 06:06:36;;;;;;;2.65;1.50;;;;;;;24.09;41.29;99806.75;4500078;31;34145;-61
2023/05/06 06:09:04;;;;;;;3.78;1.73;;;;;;;24.07;41.31;99803.44;4500283;31;33575;-61
2023/05/06 06:11:32;;;;;;;3.55;1.85;;;;;;;24.07;41.32;99798.81;4500028;31;33185;-60
2023/05/06 06:13:59;;;;;;;3.20;1.73;;;;;;;24.08;41.29;99810.53;4500519;31;34049;-61
2023/05/06 06:16:27;;;;;;;3.03;1.62;;;;;;;24.09;41.29;99810.31;4500393;31;33783;-61
2023/05/06 06:18:55;;;;;;;2.50;1.52;;;;;;;24.09;41.30;99807.59;4498865;31;33678;-61
2023/05/06 06:21:24;;;;;;;2.95;1.70;;;;;;;24.11;41.29;99810.91;4500237;31;33514;-61
2023/05/06 06:23:52;;;;;;;2.70;1.60;;;;;;;24.10;41.31;99809.25;4500584;31;33189;-61
2023/05/06 06:26:20;;;;;;;3.28;1.70;;;;;;;24.09;41.33;99804.84;4500361;31;35127;-60
2023/05/06 06:28:48;;;;;;;4.22;1.70;;;;;;;24.10;41.33;99803.78;4499858;31;33855;-60
2023/05/06 06:31:15;;;;;;;2.97;1.60;;;;;;;24.11;41.33;99804.66;4500113;31;33003;-61
2023/05/06 06:33:43;;;;;;;4.75;1.75;;;;;;;24.11;41.34;99799.19;4499920;31;34804;-61
2023/05/06 06:36:10;;;;;;;3.37;1.70;;;;;;;24.11;41.33;99804.66;4499901;31;33638;-62
2023/05/06 06:38:39;;;;;;;3.20;1.70;;;;;;;24.10;41.35;99801.06;4499594;31;34707;-61
2023/05/06 06:41:06;;;;;;;2.58;1.50;;;;;;;24.11;41.34;99791.84;4499475;31;33468;-61
2023/05/06 06:43:34;;;;;;;2.30;1.40;;;;;;;24.12;41.37;99803.56;4499895;31;33609;-61
2023/05/06 06:46:04;;;;;;;3.05;1.60;;;;;;;24.12;41.35;99798.94;4499799;31;34912;-61
2023/05/06 06:48:32;;;;;;;3.40;1.70;;;;;;;24.12;41.35;99798.94;4498817;31;34040;-61
2023/05/06 06:50:59;;;;;;;2.67;1.70;;;;;;;24.13;41.36;99799.78;4500246;31;33393;-61
2023/05/06 06:53:27;;;;;;;2.40;1.50;;;;;;;24.12;41.38;99796.22;4499826;31;33795;-61
2023/05/06 06:55:55;;;;;;;3.03;1.17;;;;;;;24.12;41.40;99798.94;4499389;31;33535;-61
2023/05/06 06:58:22;;;;;;;2.62;1.58;;;;;;;24.13;41.36;99797.06;4499992;31;33467;-61
2023/05/06 07:00:49;;;;;;;2.65;1.60;;;;;;;24.12;41.37;99798.94;4498388;31;32902;-61
2023/05/06 07:03:18;;;;;;;3.70;1.67;;;;;;;24.13;41.38;99807.97;4499720;31;34652;-61
2023/05/06 07:05:46;;;;;;;3.15;1.80;;;;;;;24.12;41.37;99800.84;4500199;31;34106;-60
2023/05/06 07:08:13;;;;;;;3.70;1.80;;;;;;;24.13;41.39;99795.16;4499690;31;33783;-60
2023/05/06 07:10:41;;;;;;;2.65;1.70;;;;;;;24.13;41.40;99802.50;4499614;31;34133;-60
2023/05/06 07:13:08;;;;;;;2.65;1.40;;;;;;;24.14;41.42;99801.44;4499619;31;35083;-61
2023/05/06 07:15:36;;;;;;;2.47;1.60;;;;;;;24.14;41.41;99799.53;4499523;31;34605;-61
2023/05/06 07:18:04;;;;;;;7.22;1.90;;;;;;;24.15;41.41;99803.09;4500150;31;33570;-65
2023/05/06 07:20:32;;;;;;;9.02;2.15;;;;;;;24.15;41.54;99809.41;4500231;31;33296;-61
2023/05/06 07:22:59;;;;;;;7.90;2.25;;;;;;;24.16;41.60;99802.06;4499570;31;34884;-60
2023/05/06 07:25:27;;;;;;;3.47;2.03;;;;;;;24.14;41.53;99806.88;4499832;31;33621;-60
2023/05/06 07:27:55;;;;;;;4.95;2.30;;;;;;;24.15;41.46;99808.53;4498298;31;34418;-60
2023/05/06 07:30:22;;;;;;;8.40;3.03;;;;;;;24.15;41.42;99806.69;4498224;31;33261;-60
2023/05/06 07:32:50;;;;;;;8.48;3.90;;;;;;;24.15;41.29;99812.13;4498330;31;33857;-60
2023/05/06 07:35:17;;;;;;;7.10;4.32;;;;;;;24.16;41.17;99808.34;4497884;31;34942;-60
2023/05/06 07:37:45;;;;;;;7.60;4.28;;;;;;;24.16;41.06;99808.34;4497813;31;33702;-60
2023/05/06 07:40:13;;;;;;;8.75;4.18;;;;;;;24.15;41.04;99803.09;4498797;31;33965;-60
2023/05/06 07:42:40;;;;;;;5.75;3.90;;;;;;;24.15;41.01;99798.50;4498344;31;34707;-60
2023/05/06 07:45:09;;;;;;;7.70;3.67;;;;;;;24.16;40.96;99802.06;4507533;31;34894;-72
2023/05/06 07:47:38;;;;;;;7.55;3.75;;;;;;;24.16;40.93;99808.34;4513011;31;35242;-91
2023/05/06 07:50:06;;;;;;;7.07;4.03;;;;;;;24.15;40.92;99801.22;4513290;31;33806;-92
2023/05/06 07:52:34;;;;;;;7.47;4.20;;;;;;;24.16;40.85;99804.78;4513470;31;34159;-82
2023/05/06 07:58:05;;;;;;;9.00;5.40;;;;;;;24.16;40.82;99800.16;4545076;26;20107;-74
2023/05/06 08:00:32;;;;;;;8.15;5.25;;;;;;;24.16;40.72;99804.78;4815580;26;34431;-83
2023/05/06 08:03:00;;;;;;;12.52;5.68;;;;;;;24.15;40.69;99803.94;4436373;32;35258;-88
2023/05/06 08:14:42;;;;;;;10.68;6.53;;;;;;;24.17;40.53;99807.25;4736094;27;20102;-94
2023/05/06 08:26:26;;;;;;;9.82;6.72;;;;;;;24.15;40.51;99809.41;5020302;27;21908;-79
2023/05/06 08:44:34;;;;;;;13.85;6.78;;;;;;;24.25;40.77;99803.41;4591165;26;35002;-93
2023/05/06 08:47:01;;;;;;;24.42;7.62;;;;;;;24.22;40.90;99803.84;4446330;32;33648;-78
2023/05/06 09:14:42;;;;;;;10.85;5.47;;;;;;;24.27;41.59;99809.44;4728255;26;20102;-64
2023/05/06 09:17:22;;;;;;;15.60;5.55;;;;;;;24.25;41.56;99794.34;4414932;32;34733;-63
2023/05/06 09:19:55;;;;;;;21.40;7.05;;;;;;;24.27;41.58;99797.69;4407758;32;34561;-65
2023/05/06 09:22:30;;;;;;;12.00;6.07;;;;;;;24.27;41.48;99792.25;4407786;32;34192;-65
2023/05/06 09:24:57;;;;;;;13.23;6.82;;;;;;;24.27;41.41;99789.50;4406532;32;33975;-64
2023/05/06 09:27:32;;;;;;;15.63;6.45;;;;;;;24.28;41.45;99786.53;4412035;32;33638;-65
2023/05/06 09:30:06;;;;;;;9.25;6.10;;;;;;;24.30;41.37;99778.16;4421387;32;33876;-65
2023/05/06 09:32:34;;;;;;;16.65;5.90;;;;;;;24.29;41.15;99782.75;4422979;32;34185;-66
2023/05/06 09:35:07;;;;;;;15.05;6.07;;;;;;;24.31;41.04;99788.00;4409784;32;34003;-64
2023/05/06 09:37:35;;;;;;;11.18;5.70;;;;;;;24.31;40.96;99783.38;4409265;32;34897;-66
2023/05/06 09:40:03;;;;;;;11.50;5.82;;;;;;;24.31;40.94;99788.00;4422142;32;33754;-65
2023/05/06 09:42:31;;;;;;;12.93;5.70;;;;;;;24.30;40.92;99784.44;4423034;32;33601;-65
2023/05/06 09:45:00;;;;;;;7.62;4.60;;;;;;;24.29;40.89;99774.56;4409388;32;33986;-66
2023/05/06 09:47:34;;;;;;;12.60;5.43;;;;;;;24.30;40.84;99772.69;4422842;32;34912;-66
2023/05/06 09:50:02;;;;;;;9.75;5.57;;;;;;;24.30;40.82;99775.44;4406344;32;34655;-66
2023/05/06 09:52:31;;;;;;;7.33;5.40;;;;;;;24.29;40.75;99766.38;4407563;32;33174;-64
2023/05/06 09:54:59;;;;;;;9.20;5.87;;;;;;;24.31;40.63;99758.81;4420821;32;33592;-65
2023/05/06 09:57:29;;;;;;;10.57;5.40;;;;;;;24.31;40.55;99763.44;4409181;32;34832;-64
2023/05/06 09:59:56;;;;;;;10.32;5.85;;;;;;;24.31;40.41;99761.56;4422118;32;33589;-65
2023/05/06 10:02:24;;;;;;;11.90;5.93;;;;;;;24.35;40.16;99761.94;4409111;32;33268;-64
2023/05/06 10:04:52;;;;;;;8.70;6.12;;;;;;;24.34;40.08;99762.97;4409163;32;34083;-64
2023/05/06 10:07:24;;;;;;;9.57;5.20;;;;;;;24.34;39.99;99757.50;4409047;32;33611;-65
2023/05/06 10:09:52;;;;;;;7.40;5.35;;;;;;;24.32;40.00;99757.75;4422529;32;33909;-65
2023/05/06 10:12:19;;;;;;;9.70;5.00;;;;;;;24.32;39.88;99763.22;4409124;32;33579;-66
2023/05/06 10:14:47;;;;;;;8.18;5.20;;;;;;;24.35;39.62;99759.19;4422584;32;33770;-64
2023/05/06 10:17:14;;;;;;;6.85;5.00;;;;;;;24.33;39.68;99761.31;4418349;32;34961;-65
2023/05/06 10:19:43;;;;;;;7.05;4.60;;;;;;;24.34;39.52;99752.91;4406089;32;33996;-66
2023/05/06 10:22:19;;;;;;;8.40;4.90;;;;;;;24.33;39.61;99748.50;4392304;32;33669;-64
2023/05/06 10:25:29;;;;;;;7.90;5.25;;;;;;;24.34;39.53;99746.59;4394141;32;34050;-65
2023/05/06 10:27:57;;;;;;;9.07;4.87;;;;;;;24.35;39.31;99738.22;4382732;32;34875;-66
2023/05/06 10:30:25;;;;;;;6.60;4.97;;;;;;;24.33;39.16;99737.59;4395812;32;33855;-65
2023/05/06 10:32:53;;;;;;;9.30;5.22;;;;;;;24.31;39.30;99730.72;4408856;32;34253;-65
2023/05/06 10:35:42;;;;;;;10.10;5.65;;;;;;;24.32;39.19;99735.13;4408852;32;34745;-64
2023/05/06 10:38:31;;;;;;;9.25;4.97;;;;;;;24.34;38.98;99727.50;4422576;32;34240;-65
2023/05/06 10:40:59;;;;;;;6.65;4.57;;;;;;;24.35;38.92;99729.19;4396734;32;33960;-65
2023/05/06 10:43:31;;;;;;;5.55;3.97;;;;;;;24.31;39.05;99730.72;4400374;32;33520;-65
2023/05/06 10:46:09;;;;;;;9.40;4.70;;;;;;;24.30;39.10;99715.44;4408742;32;34822;-65
2023/05/06 10:48:37;;;;;;;13.23;5.12;;;;;;;24.31;38.96;99717.09;4408473;32;34495;-64
2023/05/06 10:51:17;;;;;;;7.35;4.05;;;;;;;24.30;39.01;99705.34;4421876;32;34672;-62
2023/05/06 10:53:54;;;;;;;6.60;4.15;;;;;;;24.33;38.87;99710.31;4420063;32;33318;-62
2023/05/06 10:56:22;;;;;;;7.75;3.80;;;;;;;24.33;38.86;99707.59;4419616;32;33215;-63
2023/05/06 10:58:49;;;;;;;6.05;4.10;;;;;;;24.31;39.08;99700.75;4420625;32;34046;-62
2023/05/06 11:01:20;;;;;;;7.80;4.05;;;;;;;24.31;39.23;99706.19;4383813;32;33188;-62
2023/05/06 11:03:49;;;;;;;7.10;4.32;;;;;;;24.31;39.30;99707.03;4421772;32;33532;-64
2023/05/06 11:06:43;;;;;;;10.57;4.60;;;;;;;24.34;39.15;99709.28;4421288;32;33617;-62
2023/05/06 11:09:26;;;;;;;8.88;4.60;;;;;;;24.40;39.20;99710.28;4417214;32;34089;-62
2023/05/06 11:12:00;;;;;;;12.30;4.87;;;;;;;24.35;39.43;99705.47;4421245;32;34655;-62
2023/05/06 11:14:37;;;;;;;10.00;4.80;;;;;;;24.37;39.63;99706.09;4420643;32;32987;-63
2023/05/06 11:17:06;;;;;;;7.10;4.40;;;;;;;24.38;39.73;99701.47;4418885;32;34523;-62
2023/05/06 11:19:35;;;;;;;9.60;4.30;;;;;;;24.39;39.29;99697.72;4406706;32;34110;-62
2023/05/06 11:22:05;;;;;;;8.50;4.72;;;;;;;24.36;39.05;99695.41;4419814;32;33703;-62
2023/05/06 11:24:41;;;;;;;7.40;4.22;;;;;;;24.38;39.24;99696.84;4419555;32;34191;-62
2023/05/06 11:27:09;;;;;;;9.00;4.43;;;;;;;24.40;39.08;99699.34;4421261;32;34091;-62
2023/05/06 11:29:37;;;;;;;9.65;4.50;;;;;;;24.40;39.29;99696.63;4420547;32;34120;-63
2023/05/06 11:32:05;;;;;;;12.55;4.47;;;;;;;24.41;39.26;99696.37;4406337;32;33663;-62
2023/05/06 11:34:34;;;;;;;9.32;4.40;;;;;;;24.43;39.34;99701.59;4407225;32;33549;-63
2023/05/06 11:37:06;;;;;;;9.15;4.12;;;;;;;24.43;39.25;99704.31;4420876;32;33826;-63
2023/05/06 11:39:34;;;;;;;7.00;4.03;;;;;;;24.43;39.25;99697.00;4420301;32;34164;-63
2023/05/06 11:42:07;;;;;;;9.50;4.22;;;;;;;24.43;39.22;99694.28;4421265;32;33686;-63
2023/05/06 11:44:36;;;;;;;11.73;4.37;;;;;;;24.45;39.00;99699.47;4420977;32;33992;-62
2023/05/06 11:47:04;;;;;;;7.20;4.47;;;;;;;24.42;39.00;99697.22;4417835;32;33909;-62
2023/05/06 11:49:36;;;;;;;6.40;3.60;;;;;;;24.42;38.72;99703.50;4419025;32;34828;-63
2023/05/06 11:52:04;;;;;;;5.57;3.65;;;;;;;24.46;38.77;99708.50;4420326;32;34576;-65
2023/05/06 11:54:37;;;;;;;8.27;4.40;;;;;;;24.45;38.72;99709.56;4399862;32;33512;-65
2023/05/06 11:57:04;;;;;;;5.85;4.03;;;;;;;24.42;38.88;99714.41;4406664;32;34328;-63
2023/05/06 11:59:36;;;;;;;6.20;4.00;;;;;;;24.40;38.77;99710.28;4407501;32;34858;-64
2023/05/06 12:02:06;;;;;;;7.00;4.03;;;;;;;24.38;38.80;99713.22;4407541;32;33629;-65
2023/05/06 12:04:42;;;;;;;5.87;4.12;;;;;;;24.38;38.75;99712.37;4407913;32;33259;-63
2023/05/06 12:07:10;;;;;;;5.85;3.87;;;;;;;24.39;38.64;99714.06;4421327;32;33769;-62
2023/05/06 12:09:44;;;;;;;7.15;3.90;;;;;;;24.37;38.65;99700.66;4421803;32;34865;-63
2023/05/06 12:12:15;;;;;;;6.37;3.85;;;;;;;24.37;38.69;99714.28;4407319;32;33704;-63
2023/05/06 12:14:42;;;;;;;6.35;4.37;;;;;;;24.37;38.71;99708.81;4414164;32;33106;-63
2023/05/06 12:17:11;;;;;;;5.95;3.97;;;;;;;24.37;38.82;99711.56;4421576;32;33865;-64
2023/05/06 12:19:38;;;;;;;6.07;4.00;;;;;;;24.37;38.89;99710.72;4419986;32;33586;-62
2023/05/06 12:22:23;;;;;;;5.93;3.67;;;;;;;24.37;38.94;99708.00;4419283;32;34646;-64
2023/05/06 12:24:51;;;;;;;7.05;4.10;;;;;;;24.38;38.96;99702.31;4421086;32;33553;-63
2023/05/06 12:27:31;;;;;;;8.82;4.32;;;;;;;24.36;38.97;99698.13;4420995;32;34545;-63
2023/05/06 12:29:59;;;;;;;7.05;3.70;;;;;;;24.39;39.01;99703.16;4419939;32;34669;-63
2023/05/06 12:32:27;;;;;;;5.72;4.10;;;;;;;24.37;39.01;99699.81;4419564;32;34590;-64
2023/05/06 12:34:55;;;;;;;5.20;3.70;;;;;;;24.37;38.99;99703.37;4421335;32;33584;-64
2023/05/06 12:37:27;;;;;;;6.53;4.12;;;;;;;24.36;39.01;99695.41;4420993;32;33921;-63
2023/05/06 12:39:55;;;;;;;6.85;4.05;;;;;;;24.35;39.01;99691.84;4406968;32;34614;-63
2023/05/06 12:42:25;;;;;;;8.18;3.87;;;;;;;24.36;39.01;99700.84;4380369;32;33763;-65
2023/05/06 12:44:53;;;;;;;9.05;4.12;;;;;;;24.35;39.01;99686.41;4391816;32;33152;-63